Погода Богатыревона 2 недели

Минская область, Белоруссия

25 мая-07 июня
  • 25мая
    Сегодня
    +10°
    +25°
    Облачно с прояснениями
    ВремяПогодаТемператураВлажностьДавлениеВетер, м/сВероятность осадков
    00:00Практически безоблачно+15°C69 %749 мм4.0 м/с2 %
    03:00Облачно с прояснениями+14°C66 %749 мм4.0 м/с2 %
    06:00Облачно с прояснениями+13°C66 %749 мм3.7 м/с2 %
    09:00Облачно с прояснениями+19°C61 %749 мм4.1 м/с2 %
    12:00Облачно с прояснениями+23°C53 %749 мм4.1 м/с2 %
    15:00Облачно с прояснениями+24°C39 %748 мм5.3 м/с9 %
    18:00Облачно с прояснениями+25°C40 %747 мм4.9 м/с10 %
    21:00Облачно с прояснениями+20°C59 %747 мм2.2 м/с6 %
  • 26мая
    Воскресенье
    +13°
    +25°
    Практически безоблачно
    ВремяПогодаТемператураВлажностьДавлениеВетер, м/сВероятность осадков
    00:00Небольшая облачность+16°C66 %748 мм2.5 м/с2 %
    03:00Ясно и безоблачно+14°C68 %747 мм2.3 м/с2 %
    06:00Ясно и безоблачно+12°C76 %748 мм1.7 м/с2 %
    09:00Ясно и безоблачно+19°C54 %749 мм1.8 м/с2 %
    12:00Ясно и безоблачно+23°C33 %749 мм2.9 м/с2 %
    15:00Практически безоблачно+24°C31 %748 мм3.1 м/с2 %
    18:00Ясно и безоблачно+24°C33 %748 мм3.0 м/с2 %
    21:00Ясно и безоблачно+19°C58 %747 мм2.3 м/с2 %
  • 27мая
    Понедельник
    +14°
    +26°
    Ясно и безоблачно
    ВремяПогодаТемператураВлажностьДавлениеВетер, м/сВероятность осадков
    00:00Ясно и безоблачно+17°C51 %748 мм0.7 м/с2 %
    03:00Ясно и безоблачно+15°C69 %748 мм1.8 м/с2 %
    06:00Ясно и безоблачно+13°C76 %747 мм2.1 м/с2 %
    09:00Ясно и безоблачно+20°C51 %748 мм1.6 м/с2 %
    12:00Ясно и безоблачно+24°C38 %748 мм3.2 м/с2 %
    15:00Ясно и безоблачно+26°C37 %747 мм3.2 м/с3 %
    18:00Ясно и безоблачно+26°C37 %746 мм2.9 м/с9 %
    21:00Ясно и безоблачно+21°C58 %746 мм2.1 м/с4 %
  • 28мая
    Вторник
    +14°
    +26°
    Ясно и безоблачно
    ВремяПогодаТемператураВлажностьДавлениеВетер, м/сВероятность осадков
    00:00Ясно и безоблачно+17°C60 %745 мм2.6 м/с2 %
    03:00Ясно и безоблачно+16°C72 %745 мм1.3 м/с2 %
    06:00Ясно и безоблачно+14°C85 %745 мм1.6 м/с2 %
    09:00Ясно и безоблачно+20°C55 %745 мм2.0 м/с2 %
    12:00Ясно и безоблачно+24°C33 %745 мм3.8 м/с3 %
    15:00Ясно и безоблачно+25°C33 %744 мм3.7 м/с13 %
    18:00Практически безоблачно+26°C31 %743 мм3.2 м/с29 %
    21:00Ясно и безоблачно+21°C59 %742 мм3.8 м/с10 %
  • 29мая
    Среда
    +13°
    +27°
    Облачно с прояснениями
    ВремяПогодаТемператураВлажностьДавлениеВетер, м/сВероятность осадков
    00:00Ясно и безоблачно+17°C83 %742 мм2.4 м/с3 %
    03:00Ясно и безоблачно+14°C93 %742 мм2.0 м/с2 %
    06:00Облачно с прояснениями+15°C88 %741 мм2.5 м/с2 %
    09:00Небольшая облачность+21°C66 %741 мм2.7 м/с3 %
    12:00Облачно с прояснениями+25°C36 %741 мм3.1 м/с5 %
    15:00Облачно с прояснениями+26°C30 %740 мм4.2 м/с25 %
    18:00Ясно и безоблачно+26°C31 %739 мм3.5 м/с26 %
    21:00Облачно с прояснениями+21°C48 %739 мм2.2 м/с9 %
Мы используем cookies
Соглашаюсь